Time;durP1;ratioP1;P1;durP2;ratioP2;P2;SDS_P1;SDS_P2;PMS_P1;PMS_P2;Temp;Humidity;BMP_temperature;BMP_pressure;BME280_temperature;BME280_humidity;BME280_pressure;Samples;Min_cycle;Max_cycle;Signal;HPM_P1;HPM_P2
2021/03/14 00:00:48;;;;;;;8.30;1.77;;;;;;;5.10;83.47;100264.31;4837819;29;20068;-56
2021/03/14 00:03:17;;;;;;;17.25;3.47;;;;;;;5.08;83.53;100270.13;4838474;29;20050;-54
2021/03/14 00:05:47;;;;;;;10.63;2.20;;;;;;;5.10;83.43;100275.28;4837663;29;20046;-55
2021/03/14 00:08:14;;;;;;;6.45;1.80;;;;;;;5.12;83.42;100276.56;4840860;29;20044;-55
2021/03/14 00:10:44;;;;;;;11.35;3.35;;;;;;;5.11;83.48;100279.66;4846660;29;20583;-56
2021/03/14 00:13:13;;;;;;;8.80;2.10;;;;;;;5.09;83.53;100288.19;4833886;29;20059;-53
2021/03/14 00:15:40;;;;;;;6.88;1.30;;;;;;;5.09;83.54;100288.19;4839618;29;20579;-52
2021/03/14 00:18:08;;;;;;;7.28;2.03;;;;;;;5.06;83.72;100288.81;4841542;29;20062;-52
2021/03/14 00:20:35;;;;;;;6.50;2.10;;;;;;;5.07;83.28;100295.13;4856957;29;20054;-50
2021/03/14 00:23:01;;;;;;;9.70;1.73;;;;;;;5.08;83.43;100302.22;4827771;29;20045;-53
2021/03/14 00:25:28;;;;;;;7.25;1.38;;;;;;;5.04;83.19;100302.06;4850486;29;20053;-50
2021/03/14 00:27:54;;;;;;;10.23;2.55;;;;;;;5.02;83.25;100301.56;4854455;29;20067;-53
2021/03/14 00:30:21;;;;;;;11.68;2.45;;;;;;;5.01;83.61;100312.84;4850760;29;20102;-57
2021/03/14 00:32:47;;;;;;;12.02;1.92;;;;;;;4.99;83.70;100313.19;4840318;29;20073;-51
2021/03/14 00:35:16;;;;;;;15.38;2.40;;;;;;;4.97;83.27;100329.16;4853098;29;20053;-52
2021/03/14 00:37:42;;;;;;;7.13;1.88;;;;;;;4.93;84.04;100322.66;4830177;29;20118;-53
2021/03/14 00:40:21;;;;;;;7.50;3.40;;;;;;;4.90;83.85;100329.59;4848872;29;20049;-53
2021/03/14 00:42:48;;;;;;;8.40;1.20;;;;;;;4.87;83.92;100335.72;4851215;29;20042;-54
2021/03/14 00:45:32;;;;;;;4.88;2.17;;;;;;;4.87;84.02;100346.69;4825167;29;20050;-54
2021/03/14 00:48:01;;;;;;;8.38;2.08;;;;;;;4.87;83.67;100343.16;4830161;29;20481;-51
2021/03/14 00:50:28;;;;;;;5.82;1.52;;;;;;;4.86;83.38;100345.09;4862148;29;20042;-51
2021/03/14 00:52:54;;;;;;;13.82;3.13;;;;;;;4.84;83.81;100358.28;4861852;29;20125;-51
2021/03/14 00:55:21;;;;;;;6.25;1.17;;;;;;;4.83;83.35;100355.88;4857502;29;20057;-52
2021/03/14 00:57:47;;;;;;;7.05;1.40;;;;;;;4.82;83.60;100370.69;4843897;29;20466;-51
2021/03/14 01:00:14;;;;;;;13.63;2.20;;;;;;;4.80;83.50;100384.75;4860896;29;20054;-51
2021/03/14 01:02:41;;;;;;;9.05;1.38;;;;;;;4.75;83.76;100375.84;4846941;29;20056;-51
2021/03/14 01:05:08;;;;;;;8.52;1.23;;;;;;;4.75;83.84;100375.84;4843015;29;20405;-51
2021/03/14 01:07:34;;;;;;;8.38;1.77;;;;;;;4.73;83.52;100380.84;4827032;29;20064;-50
2021/03/14 01:10:01;;;;;;;10.85;2.17;;;;;;;4.70;83.86;100395.19;4856072;29;20157;-51
2021/03/14 01:12:27;;;;;;;3.90;1.40;;;;;;;4.69;83.65;100394.38;4843258;29;20077;-51
2021/03/14 01:14:53;;;;;;;10.45;1.80;;;;;;;4.67;84.07;100385.66;4843007;29;20141;-55
2021/03/14 01:17:20;;;;;;;6.32;1.55;;;;;;;4.67;84.19;100399.34;4834590;29;20050;-52
2021/03/14 01:19:50;;;;;;;16.08;4.00;;;;;;;4.65;84.07;100393.38;4851425;29;20077;-54
2021/03/14 01:22:17;;;;;;;5.00;1.35;;;;;;;4.64;83.85;100407.38;4824865;29;20379;-54
2021/03/14 01:24:45;;;;;;;10.98;1.70;;;;;;;4.62;84.01;100409.66;4826153;29;20058;-54
2021/03/14 01:27:11;;;;;;;10.02;1.48;;;;;;;4.61;83.94;100408.00;4842870;29;20092;-56
2021/03/14 01:29:39;;;;;;;7.90;1.30;;;;;;;4.60;83.79;100401.75;4845444;29;20711;-54
2021/03/14 01:32:06;;;;;;;9.38;3.38;;;;;;;4.59;83.80;100415.75;4852329;29;20088;-55
2021/03/14 01:34:33;;;;;;;6.20;1.50;;;;;;;4.60;83.93;100411.91;4848869;29;20657;-57
2021/03/14 01:36:59;;;;;;;8.82;3.33;;;;;;;4.59;83.78;100422.06;4843010;29;20049;-53
2021/03/14 01:39:26;;;;;;;15.73;1.83;;;;;;;4.59;83.53;100437.69;4855588;29;20481;-53
2021/03/14 01:41:52;;;;;;;8.68;1.33;;;;;;;4.58;83.54;100444.31;4860248;29;20102;-56
2021/03/14 01:44:19;;;;;;;8.38;1.75;;;;;;;4.55;84.03;100453.16;4843786;29;20084;-56
2021/03/14 01:46:46;;;;;;;8.68;1.38;;;;;;;4.53;84.05;100449.88;4831345;29;20489;-55
2021/03/14 01:49:16;;;;;;;11.13;1.77;;;;;;;4.54;83.49;100462.47;4843658;29;20046;-56
2021/03/14 01:51:45;;;;;;;9.77;1.45;;;;;;;4.51;83.87;100463.91;4853662;29;20516;-55
2021/03/14 01:54:12;;;;;;;7.40;1.60;;;;;;;4.50;83.89;100461.50;4859110;29;20077;-53
2021/03/14 01:56:40;;;;;;;9.80;2.17;;;;;;;4.49;84.17;100476.31;4851089;29;20057;-53
2021/03/14 01:59:06;;;;;;;6.25;2.00;;;;;;;4.47;84.07;100484.88;4852458;29;20543;-56
2021/03/14 02:01:33;;;;;;;10.80;1.70;;;;;;;4.46;84.23;100483.25;4858813;29;20085;-55
2021/03/14 02:03:59;;;;;;;10.98;2.90;;;;;;;4.46;83.90;100490.63;4845239;29;20050;-52
2021/03/14 02:06:28;;;;;;;6.90;1.45;;;;;;;4.47;84.29;100500.50;4855251;29;20095;-54
2021/03/14 02:08:54;;;;;;;8.52;2.25;;;;;;;4.47;84.19;100511.47;4851337;29;20054;-53
2021/03/14 02:11:25;;;;;;;12.27;2.25;;;;;;;4.47;84.60;100527.91;4847518;29;20038;-55
2021/03/14 02:13:56;;;;;;;10.40;2.30;;;;;;;4.48;84.10;100529.50;4845254;29;20054;-56
2021/03/14 02:16:28;;;;;;;12.48;2.40;;;;;;;4.53;84.18;100526.66;4852077;29;20074;-53
2021/03/14 02:19:01;;;;;;;11.68;2.50;;;;;;;4.52;84.63;100525.03;4857007;29;20049;-55
2021/03/14 02:21:33;;;;;;;16.38;2.72;;;;;;;4.52;84.34;100531.34;4851390;29;20508;-56
2021/03/14 02:24:45;;;;;;;13.32;2.10;;;;;;;4.50;85.67;100532.78;4840541;29;20046;-52
2021/03/14 02:27:11;;;;;;;11.07;3.08;;;;;;;4.51;84.70;100535.19;4828455;29;20073;-52
2021/03/14 02:29:41;;;;;;;10.23;1.88;;;;;;;4.52;84.98;100542.31;4845737;29;20057;-53
2021/03/14 02:32:10;;;;;;;23.60;2.85;;;;;;;4.54;84.89;100555.69;4844755;29;20053;-54
2021/03/14 02:34:43;;;;;;;10.00;1.88;;;;;;;4.56;84.86;100556.19;4841018;29;20102;-56
2021/03/14 02:37:11;;;;;;;14.80;3.00;;;;;;;4.57;84.99;100557.81;4827603;29;21398;-52
2021/03/14 02:39:44;;;;;;;7.45;2.10;;;;;;;4.56;85.03;100547.97;4855791;29;20454;-56
2021/03/14 02:42:12;;;;;;;16.10;2.38;;;;;;;4.58;84.96;100557.50;4842665;29;20054;-53
2021/03/14 02:44:47;;;;;;;11.93;2.50;;;;;;;4.57;85.41;100561.38;4825564;29;20045;-55
2021/03/14 02:47:14;;;;;;;21.70;3.65;;;;;;;4.59;85.10;100556.38;4839749;29;20442;-54
2021/03/14 02:49:57;;;;;;;10.73;2.42;;;;;;;4.60;84.97;100563.50;4842678;29;20405;-57
2021/03/14 02:52:24;;;;;;;12.07;3.03;;;;;;;4.62;84.68;100565.91;4856866;29;20053;-53
2021/03/14 02:54:52;;;;;;;11.15;2.67;;;;;;;4.62;84.82;100568.66;4845939;29;20446;-52
2021/03/14 02:57:21;;;;;;;11.52;2.63;;;;;;;4.63;84.30;100589.50;4841430;29;20050;-56
2021/03/14 02:59:52;;;;;;;6.35;2.03;;;;;;;4.61;84.98;100588.97;4840567;29;20062;-56
2021/03/14 03:02:19;;;;;;;12.10;2.60;;;;;;;4.61;84.37;100578.81;4842101;29;20081;-56
2021/03/14 03:04:48;;;;;;;8.80;1.77;;;;;;;4.58;84.61;100584.13;4843243;29;20050;-53
2021/03/14 03:07:20;;;;;;;12.73;2.88;;;;;;;4.54;84.79;100588.59;4822477;29;20052;-55
2021/03/14 03:09:49;;;;;;;12.18;3.65;;;;;;;4.50;85.22;100602.09;4843481;29;20102;-57
2021/03/14 03:12:25;;;;;;;11.40;3.28;;;;;;;4.52;84.64;100612.75;4823043;29;20061;-50
2021/03/14 03:14:55;;;;;;;12.80;3.13;;;;;;;4.48;84.40;100622.72;4844718;29;20481;-54
2021/03/14 03:17:25;;;;;;;10.32;2.03;;;;;;;4.45;84.71;100626.88;4859892;29;20457;-55
2021/03/14 03:19:54;;;;;;;9.20;2.63;;;;;;;4.44;84.87;100632.69;4840440;29;20057;-54
2021/03/14 03:22:21;;;;;;;10.70;3.47;;;;;;;4.42;84.81;100629.44;4837167;29;20065;-51
2021/03/14 03:24:51;;;;;;;10.60;2.40;;;;;;;4.40;84.56;100628.91;4857975;29;20056;-52
2021/03/14 03:27:18;;;;;;;8.85;2.05;;;;;;;4.38;84.84;100629.22;4841773;29;20077;-52
2021/03/14 03:29:45;;;;;;;7.57;2.00;;;;;;;4.38;84.51;100639.38;4851836;29;20129;-53
2021/03/14 03:32:12;;;;;;;13.90;2.95;;;;;;;4.36;84.83;100638.88;4844092;29;20109;-53
2021/03/14 03:34:38;;;;;;;9.85;1.98;;;;;;;4.32;84.61;100647.72;4845112;29;20057;-53
2021/03/14 03:37:04;;;;;;;12.77;1.83;;;;;;;4.32;84.59;100642.22;4829494;29;20050;-55
2021/03/14 03:39:31;;;;;;;23.90;3.53;;;;;;;4.29;84.71;100653.78;4840542;29;20077;-54
2021/03/14 03:42:12;;;;;;;8.13;2.42;;;;;;;4.27;85.19;100650.56;4849618;29;20046;-55
2021/03/14 03:44:41;;;;;;;12.40;2.08;;;;;;;4.29;84.99;100647.50;4833476;29;20501;-56
2021/03/14 03:47:12;;;;;;;8.13;1.60;;;;;;;4.29;84.85;100648.31;4840894;29;20058;-55
2021/03/14 03:49:47;;;;;;;8.73;1.95;;;;;;;4.28;84.65;100646.72;4844393;29;20524;-56
2021/03/14 03:52:17;;;;;;;13.43;1.87;;;;;;;4.27;84.81;100653.31;4845419;29;20053;-55
2021/03/14 03:54:48;;;;;;;15.50;3.05;;;;;;;4.27;85.08;100639.59;4838149;29;20300;-55
2021/03/14 03:57:19;;;;;;;13.48;2.53;;;;;;;4.26;84.95;100659.88;4843218;29;20049;-54
2021/03/14 03:59:48;;;;;;;11.88;1.83;;;;;;;4.27;84.86;100664.25;4847332;29;20462;-51
2021/03/14 04:02:15;;;;;;;7.80;1.90;;;;;;;4.26;84.77;100670.84;4842283;29;20106;-55
2021/03/14 04:04:44;;;;;;;19.88;3.72;;;;;;;4.28;85.02;100673.31;4841374;29;20500;-55
2021/03/14 04:07:12;;;;;;;10.07;2.58;;;;;;;4.27;85.02;100677.97;4840331;29;20085;-55
2021/03/14 04:09:42;;;;;;;11.73;2.55;;;;;;;4.29;84.98;100686.69;4807933;29;20148;-56
2021/03/14 04:12:10;;;;;;;9.82;2.70;;;;;;;4.28;85.14;100676.03;4850780;29;20140;-56
2021/03/14 04:14:37;;;;;;;7.63;1.55;;;;;;;4.29;85.50;100675.72;4855805;29;20068;-57
2021/03/14 04:17:05;;;;;;;8.68;1.70;;;;;;;4.29;85.19;100686.69;4859044;29;20041;-59
2021/03/14 04:19:33;;;;;;;14.45;3.80;;;;;;;4.29;85.40;100697.66;4849732;29;20048;-55
2021/03/14 04:22:01;;;;;;;9.80;2.15;;;;;;;4.30;85.08;100692.97;4842264;29;20078;-55
2021/03/14 04:24:29;;;;;;;22.95;3.28;;;;;;;4.30;85.09;100687.50;4844144;29;20077;-56
2021/03/14 04:27:01;;;;;;;16.58;2.30;;;;;;;4.29;85.09;100694.91;4845479;29;20137;-55
2021/03/14 04:29:30;;;;;;;11.38;2.42;;;;;;;4.29;84.71;100692.16;4837823;29;20054;-56
2021/03/14 04:31:57;;;;;;;10.50;3.13;;;;;;;4.27;84.87;100694.41;4851005;29;20050;-55
2021/03/14 04:34:25;;;;;;;19.33;2.35;;;;;;;4.26;84.99;100703.72;4856806;29;20127;-54
2021/03/14 04:36:55;;;;;;;11.85;2.28;;;;;;;4.26;84.80;100708.44;4853725;29;20084;-52
2021/03/14 04:39:22;;;;;;;13.35;2.53;;;;;;;4.25;84.89;100701.31;4843961;29;20182;-54
2021/03/14 04:41:49;;;;;;;12.15;2.15;;;;;;;4.24;85.11;100702.41;4852320;29;20054;-54
2021/03/14 04:44:17;;;;;;;11.15;1.83;;;;;;;4.24;84.83;100705.16;4844710;29;20042;-55
2021/03/14 04:46:45;;;;;;;8.00;1.83;;;;;;;4.21;84.56;100711.22;4858765;29;20058;-51
2021/03/14 04:49:13;;;;;;;14.15;3.55;;;;;;;4.18;84.96;100718.13;4848158;29;20054;-55
2021/03/14 04:51:44;;;;;;;6.35;1.50;;;;;;;4.16;85.29;100720.38;4850007;29;20091;-55
2021/03/14 04:54:13;;;;;;;10.45;2.17;;;;;;;4.14;84.81;100722.63;4831542;29;20417;-52
2021/03/14 04:56:41;;;;;;;12.23;2.75;;;;;;;4.12;84.88;100729.50;4854434;29;20050;-57
2021/03/14 04:59:10;;;;;;;15.82;2.80;;;;;;;4.12;85.43;100733.06;4861748;29;20547;-51
2021/03/14 05:01:41;;;;;;;10.48;2.30;;;;;;;4.11;84.89;100752.53;4854340;29;20049;-52
2021/03/14 05:04:10;;;;;;;5.70;1.55;;;;;;;4.11;84.83;100764.31;4858808;29;20081;-52
2021/03/14 05:06:43;;;;;;;15.05;2.58;;;;;;;4.11;85.26;100767.03;4848061;29;20049;-53
2021/03/14 05:09:13;;;;;;;6.63;2.30;;;;;;;4.10;85.39;100759.94;4853581;29;20046;-51
2021/03/14 05:11:42;;;;;;;12.73;2.25;;;;;;;4.10;84.84;100762.66;4840608;29;20524;-56
2021/03/14 05:14:09;;;;;;;7.93;2.00;;;;;;;4.10;85.28;100757.19;4840859;29;20573;-53
2021/03/14 05:16:38;;;;;;;11.65;2.17;;;;;;;4.08;85.05;100767.66;4856162;29;20094;-53
2021/03/14 05:19:07;;;;;;;10.10;2.35;;;;;;;4.09;85.04;100757.50;4860127;29;20077;-52
2021/03/14 05:21:53;;;;;;;9.63;1.95;;;;;;;4.07;84.86;100755.09;4833458;29;20058;-57
2021/03/14 05:24:20;;;;;;;14.30;2.63;;;;;;;4.07;84.78;100768.78;4857467;29;20049;-53
2021/03/14 05:26:48;;;;;;;9.23;1.65;;;;;;;4.05;85.03;100773.72;4859025;29;20057;-55
2021/03/14 05:29:15;;;;;;;7.65;1.48;;;;;;;4.06;85.35;100778.09;4842882;29;20046;-54
2021/03/14 05:31:43;;;;;;;12.13;1.77;;;;;;;4.06;85.17;100786.31;4850108;29;20041;-52
2021/03/14 05:34:15;;;;;;;8.57;1.25;;;;;;;4.07;85.48;100793.44;4839571;29;20128;-54
2021/03/14 05:36:42;;;;;;;12.13;2.28;;;;;;;4.08;85.14;100789.56;4861520;29;20105;-57
2021/03/14 05:39:12;;;;;;;10.88;1.98;;;;;;;4.11;85.43;100791.72;4824186;29;20054;-53
2021/03/14 05:41:39;;;;;;;7.95;2.22;;;;;;;4.10;85.41;100790.06;4845581;29;20165;-55
2021/03/14 05:44:06;;;;;;;12.82;3.63;;;;;;;4.10;85.46;100798.28;4852237;29;20057;-52
2021/03/14 05:46:34;;;;;;;8.15;1.98;;;;;;;4.09;85.14;100801.34;4842195;29;20052;-52
2021/03/14 05:49:05;;;;;;;9.10;2.30;;;;;;;4.07;85.43;100796.19;4858867;29;20052;-55
2021/03/14 05:51:34;;;;;;;17.15;3.03;;;;;;;4.06;85.38;100802.75;4839206;29;20098;-55
2021/03/14 05:54:04;;;;;;;8.00;2.50;;;;;;;4.08;85.65;100805.19;4833943;29;20057;-54
2021/03/14 05:56:32;;;;;;;8.02;1.67;;;;;;;4.06;85.52;100810.97;4846542;29;20050;-56
2021/03/14 05:59:00;;;;;;;9.75;1.95;;;;;;;4.05;85.88;100809.34;4858657;29;20274;-54
2021/03/14 06:01:29;;;;;;;9.73;2.42;;;;;;;4.07;85.71;100809.06;4855824;29;20106;-52
2021/03/14 06:03:58;;;;;;;11.32;2.40;;;;;;;4.06;85.43;100813.72;4860517;29;20106;-56
2021/03/14 06:06:25;;;;;;;13.75;2.42;;;;;;;4.05;85.71;100820.28;4847218;29;20046;-55
2021/03/14 06:08:51;;;;;;;11.15;2.35;;;;;;;4.07;85.77;100820.84;4844846;29;20107;-53
2021/03/14 06:11:18;;;;;;;12.48;2.10;;;;;;;4.07;85.98;100826.31;4838158;29;20080;-53
2021/03/14 06:13:45;;;;;;;6.80;1.90;;;;;;;4.09;85.65;100834.22;4853485;29;20084;-56
2021/03/14 06:16:14;;;;;;;8.43;1.50;;;;;;;4.08;85.72;100832.56;4855383;29;20105;-55
2021/03/14 06:18:42;;;;;;;9.70;1.95;;;;;;;4.07;85.95;100825.50;4846049;29;20488;-55
2021/03/14 06:21:23;;;;;;;14.18;2.30;;;;;;;4.07;85.78;100826.31;4837054;29;20045;-53
2021/03/14 06:23:57;;;;;;;12.02;2.30;;;;;;;4.08;86.11;100849.00;4857775;29;20505;-54
2021/03/14 06:26:41;;;;;;;13.68;2.92;;;;;;;4.06;86.41;100852.06;4860224;29;20041;-56
2021/03/14 06:29:19;;;;;;;12.30;2.00;;;;;;;4.07;86.23;100858.38;4858933;29;20076;-51
2021/03/14 06:31:46;;;;;;;9.10;1.88;;;;;;;4.09;85.87;100851.47;4858096;29;20065;-53
2021/03/14 06:34:28;;;;;;;9.77;1.83;;;;;;;4.07;86.10;100859.19;4849276;29;20050;-56
2021/03/14 06:37:09;;;;;;;7.60;1.50;;;;;;;4.07;85.97;100858.38;4831131;29;20046;-55
2021/03/14 06:39:39;;;;;;;5.95;1.40;;;;;;;4.07;85.75;100853.72;4823880;29;20095;-58
2021/03/14 06:42:07;;;;;;;12.70;1.70;;;;;;;4.08;85.51;100849.84;4842995;29;20129;-52
2021/03/14 06:44:45;;;;;;;12.02;3.47;;;;;;;4.07;86.02;100852.88;4853724;29;20097;-54
2021/03/14 06:47:12;;;;;;;10.65;1.67;;;;;;;4.07;85.95;100856.44;4841738;29;20156;-54
2021/03/14 06:49:39;;;;;;;7.55;1.10;;;;;;;4.06;86.10;100864.94;4841718;29;20450;-51
2021/03/14 06:52:08;;;;;;;10.23;1.60;;;;;;;4.07;85.68;100869.31;4855226;29;20110;-55
2021/03/14 06:54:39;;;;;;;8.18;2.85;;;;;;;4.08;85.83;100866.28;4825937;29;20115;-53
2021/03/14 06:57:20;;;;;;;9.50;1.58;;;;;;;4.09;86.24;100867.91;4850629;29;20169;-54
2021/03/14 06:59:52;;;;;;;8.98;2.17;;;;;;;4.10;85.86;100869.53;4852704;29;20061;-51
2021/03/14 07:02:23;;;;;;;6.75;1.45;;;;;;;4.12;86.02;100863.75;4858599;29;20049;-52
2021/03/14 07:04:57;;;;;;;13.15;2.17;;;;;;;4.14;85.72;100862.34;4831864;29;20053;-52
2021/03/14 07:07:25;;;;;;;8.82;1.85;;;;;;;4.15;86.02;100844.81;4842538;29;20079;-57
2021/03/14 07:10:06;;;;;;;10.52;1.75;;;;;;;4.16;86.24;100846.41;4851259;29;20049;-56
2021/03/14 07:12:43;;;;;;;15.23;1.77;;;;;;;4.17;85.93;100853.53;4850654;29;20137;-56
2021/03/14 07:15:13;;;;;;;8.90;1.73;;;;;;;4.18;86.19;100862.56;4850631;29;20133;-52
2021/03/14 07:17:42;;;;;;;6.97;1.35;;;;;;;4.23;85.86;100859.75;4844377;29;20109;-56
2021/03/14 07:20:16;;;;;;;7.32;1.67;;;;;;;4.22;86.02;100861.66;4840965;29;20048;-52
2021/03/14 07:22:59;;;;;;;15.07;3.90;;;;;;;4.26;85.97;100857.19;4841944;29;20539;-54
2021/03/14 07:25:26;;;;;;;8.93;1.85;;;;;;;4.31;85.84;100854.34;4849693;29;20045;-52
2021/03/14 07:27:53;;;;;;;10.68;2.38;;;;;;;4.32;86.16;100864.22;4853497;29;20109;-56
2021/03/14 07:30:22;;;;;;;8.93;2.65;;;;;;;4.35;85.84;100867.47;4844607;29;20409;-52
2021/03/14 07:32:49;;;;;;;9.60;2.17;;;;;;;4.38;85.65;100869.59;4850351;29;20137;-57
2021/03/14 07:35:17;;;;;;;11.05;1.95;;;;;;;4.43;85.76;100872.25;4858384;29;20056;-53
2021/03/14 07:37:44;;;;;;;10.43;2.13;;;;;;;4.45;85.53;100881.81;4858689;29;20076;-52
2021/03/14 07:40:16;;;;;;;8.93;1.92;;;;;;;4.50;85.57;100881.72;4854469;29;20132;-55
2021/03/14 07:42:43;;;;;;;8.77;2.30;;;;;;;4.54;85.69;100874.53;4856699;29;20066;-52
2021/03/14 07:45:11;;;;;;;14.00;1.55;;;;;;;4.55;85.44;100880.84;4840316;29;20058;-56
2021/03/14 07:47:39;;;;;;;12.57;2.88;;;;;;;4.60;85.10;100886.22;4840249;29;20504;-52
2021/03/14 07:50:09;;;;;;;10.98;1.88;;;;;;;4.63;85.05;100899.31;4842836;29;20057;-54
2021/03/14 07:52:39;;;;;;;13.98;2.50;;;;;;;4.67;85.15;100911.31;4851943;29;20053;-56
2021/03/14 07:55:12;;;;;;;6.03;1.42;;;;;;;4.71;84.84;100918.63;4861491;29;20053;-54
2021/03/14 07:57:50;;;;;;;16.38;3.53;;;;;;;4.78;84.77;100934.69;4864619;29;20401;-53
2021/03/14 08:00:23;;;;;;;16.80;2.17;;;;;;;4.80;84.61;100932.47;4857411;29;20054;-52
2021/03/14 08:03:00;;;;;;;11.77;2.53;;;;;;;4.82;84.37;100930.22;4845398;29;20428;-52
2021/03/14 08:05:42;;;;;;;8.98;1.52;;;;;;;4.86;84.12;100931.25;4835794;29;20101;-57
2021/03/14 08:08:32;;;;;;;12.85;2.38;;;;;;;4.91;84.14;100947.63;4843388;29;20061;-51
2021/03/14 08:10:59;;;;;;;10.85;1.83;;;;;;;4.96;83.83;100935.72;4851753;29;20051;-51
2021/03/14 08:13:31;;;;;;;14.57;2.58;;;;;;;5.00;83.82;100937.59;4844746;29;20045;-52
2021/03/14 08:16:07;;;;;;;10.05;1.52;;;;;;;5.02;83.78;100927.13;4851201;29;20081;-50
2021/03/14 08:18:44;;;;;;;18.08;2.65;;;;;;;5.08;83.85;100931.41;4833867;29;20050;-53
2021/03/14 08:21:19;;;;;;;11.70;3.17;;;;;;;5.10;83.33;100931.91;4852799;29;20559;-51
2021/03/14 08:23:53;;;;;;;13.55;2.33;;;;;;;5.16;83.18;100932.59;4855092;29;20076;-51
2021/03/14 08:26:29;;;;;;;12.70;2.40;;;;;;;5.20;82.94;100930.88;4845346;29;20069;-52
2021/03/14 08:28:57;;;;;;;18.85;8.00;;;;;;;5.26;82.89;100922.25;4853017;29;20524;-53
2021/03/14 08:31:38;;;;;;;20.38;3.17;;;;;;;5.30;82.03;100930.66;4844479;29;20053;-54
2021/03/14 08:34:07;;;;;;;16.30;1.88;;;;;;;5.34;82.73;100929.75;4837249;29;20057;-54
2021/03/14 08:36:37;;;;;;;24.45;4.80;;;;;;;5.38;81.96;100928.03;4844418;29;20102;-55
2021/03/14 08:39:05;;;;;;;9.52;2.10;;;;;;;5.42;82.19;100926.31;4851927;29;20053;-56
2021/03/14 08:41:39;;;;;;;7.50;2.30;;;;;;;5.45;82.01;100933.91;4863490;29;20053;-55
2021/03/14 08:44:14;;;;;;;10.85;2.03;;;;;;;5.50;82.03;100938.50;4845734;29;20049;-58
2021/03/14 08:46:46;;;;;;;8.57;2.33;;;;;;;5.52;81.65;100942.56;4846707;29;20042;-53
2021/03/14 08:49:23;;;;;;;7.05;2.03;;;;;;;5.56;81.35;100947.44;4855249;29;20051;-56
2021/03/14 08:51:50;;;;;;;18.73;3.17;;;;;;;5.57;81.16;100938.88;4846042;29;20497;-58
2021/03/14 08:54:34;;;;;;;10.25;3.45;;;;;;;5.58;80.84;100936.97;4832713;29;20488;-54
2021/03/14 08:57:05;;;;;;;11.00;2.25;;;;;;;5.59;80.66;100944.09;4849096;29;20545;-57
2021/03/14 08:59:32;;;;;;;6.28;1.88;;;;;;;5.64;80.94;100953.00;4853607;29;20113;-56
2021/03/14 09:02:01;;;;;;;13.95;2.80;;;;;;;5.64;80.63;100950.25;4851352;29;20045;-53
2021/03/14 09:04:32;;;;;;;15.30;2.42;;;;;;;5.73;80.66;100944.84;4845236;29;20114;-55
2021/03/14 09:07:10;;;;;;;18.97;4.47;;;;;;;5.77;79.99;100945.88;4843567;29;20049;-57
2021/03/14 09:09:39;;;;;;;20.30;2.50;;;;;;;5.82;80.50;100943.84;4841294;29;20046;-55
2021/03/14 09:12:11;;;;;;;14.38;3.47;;;;;;;5.84;80.29;100935.28;4835484;29;20482;-55
2021/03/14 09:14:43;;;;;;;20.50;4.63;;;;;;;5.92;79.94;100937.31;4850309;29;20069;-55
2021/03/14 09:17:12;;;;;;;12.73;3.35;;;;;;;6.03;79.75;100947.78;4851704;29;20500;-56
2021/03/14 09:19:50;;;;;;;18.20;4.30;;;;;;;6.15;79.64;100963.72;4823334;29;20143;-55
2021/03/14 09:22:26;;;;;;;19.30;3.08;;;;;;;6.28;79.83;100949.09;4831674;29;20053;-52
2021/03/14 09:25:03;;;;;;;16.20;2.78;;;;;;;6.38;79.67;100956.31;4841695;29;20056;-49
2021/03/14 09:27:31;;;;;;;11.32;2.42;;;;;;;6.56;80.63;100958.06;4827033;29;20049;-51
2021/03/14 09:30:09;;;;;;;15.70;2.85;;;;;;;6.75;80.53;100955.94;4851486;29;20058;-53
2021/03/14 09:32:37;;;;;;;13.20;3.72;;;;;;;6.97;80.57;100949.56;4858078;29;20045;-54
2021/03/14 09:35:19;;;;;;;11.02;2.33;;;;;;;7.20;79.10;100956.66;4855690;29;20056;-57
2021/03/14 09:37:50;;;;;;;20.20;2.30;;;;;;;7.43;78.39;100960.94;4844046;29;20050;-54
2021/03/14 09:40:22;;;;;;;17.80;3.40;;;;;;;7.66;77.68;100975.44;4856783;29;20049;-53
2021/03/14 09:42:51;;;;;;;19.67;4.00;;;;;;;7.84;78.18;101010.97;4838114;29;20050;-54
2021/03/14 09:45:20;;;;;;;19.45;2.30;;;;;;;7.91;77.57;100999.50;4857778;29;20129;-51
2021/03/14 09:48:03;;;;;;;6.72;1.58;;;;;;;8.08;75.71;100995.94;4858705;29;20049;-52
2021/03/14 09:50:38;;;;;;;9.98;2.15;;;;;;;8.08;76.46;100985.72;4859444;29;20437;-57
2021/03/14 09:53:06;;;;;;;9.80;2.33;;;;;;;8.03;75.32;100985.06;4848285;29;20150;-55
2021/03/14 09:55:48;;;;;;;9.50;2.60;;;;;;;7.97;73.82;100993.50;4856787;29;20054;-53
2021/03/14 09:58:16;;;;;;;10.07;2.10;;;;;;;7.92;74.94;100996.41;4832528;29;20480;-53
2021/03/14 10:00:44;;;;;;;10.38;2.00;;;;;;;7.82;74.31;101001.41;4840111;29;20107;-50
2021/03/14 10:03:14;;;;;;;12.90;2.15;;;;;;;7.75;74.50;101001.06;4842187;29;20085;-48
2021/03/14 10:05:54;;;;;;;13.82;1.98;;;;;;;7.64;73.83;100995.03;4820583;29;20050;-51
2021/03/14 10:08:32;;;;;;;7.95;1.52;;;;;;;7.54;74.53;100997.28;4835453;29;20057;-56
2021/03/14 10:11:05;;;;;;;12.52;2.40;;;;;;;7.49;75.10;101003.75;4839344;29;20114;-52
2021/03/14 10:13:33;;;;;;;14.93;3.20;;;;;;;7.43;75.20;101001.44;4837464;29;20057;-54
2021/03/14 10:16:04;;;;;;;13.15;2.70;;;;;;;7.34;75.19;100993.94;4840915;29;20050;-49
2021/03/14 10:18:31;;;;;;;11.98;2.35;;;;;;;7.25;75.23;100998.59;4836413;29;20110;-54
2021/03/14 10:21:23;;;;;;;10.18;2.60;;;;;;;7.19;75.63;100977.84;4821986;29;20589;-54
2021/03/14 10:23:50;;;;;;;6.20;3.13;;;;;;;7.20;76.13;100990.47;4824262;29;20055;-55
2021/03/14 10:26:17;;;;;;;10.90;1.85;;;;;;;7.24;76.20;100985.16;4838828;29;20305;-57
2021/03/14 10:28:47;;;;;;;14.20;2.47;;;;;;;7.19;76.54;100979.78;4824044;29;20046;-55
2021/03/14 10:31:15;;;;;;;13.13;1.85;;;;;;;7.16;76.74;100967.47;4836911;29;20149;-56
2021/03/14 10:33:44;;;;;;;7.28;1.50;;;;;;;7.18;77.04;100969.91;4849203;29;20053;-52
2021/03/14 10:36:16;;;;;;;11.82;2.55;;;;;;;7.24;77.53;100971.38;4840183;29;20077;-56
2021/03/14 10:38:47;;;;;;;13.57;2.00;;;;;;;7.33;77.59;100973.03;4828063;29;20082;-57
2021/03/14 10:41:16;;;;;;;9.70;3.00;;;;;;;7.31;78.05;100975.31;4857598;29;20062;-55
2021/03/14 10:43:54;;;;;;;10.32;1.90;;;;;;;7.32;78.86;100973.38;4841223;29;20073;-56
2021/03/14 10:46:55;;;;;;;15.70;3.03;;;;;;;7.33;80.26;100962.03;4822007;29;20050;-54
2021/03/14 10:49:24;;;;;;;10.25;2.45;;;;;;;7.41;79.51;100957.69;4810409;29;20058;-55
2021/03/14 10:51:57;;;;;;;17.70;4.78;;;;;;;7.36;79.93;100957.81;4839585;29;20110;-54
2021/03/14 10:54:32;;;;;;;18.40;2.95;;;;;;;7.31;80.32;100957.97;4839005;29;20053;-58
2021/03/14 10:56:59;;;;;;;11.98;3.20;;;;;;;7.30;80.42;100956.34;4839908;29;20325;-58
2021/03/14 10:59:30;;;;;;;20.25;2.83;;;;;;;7.24;80.89;100957.63;4843974;29;20058;-59
2021/03/14 11:02:12;;;;;;;12.80;2.63;;;;;;;7.16;81.32;100952.88;4818586;29;20065;-58
2021/03/14 11:04:40;;;;;;;13.27;3.25;;;;;;;7.07;81.10;100952.84;4839895;29;20052;-60
2021/03/14 11:07:29;;;;;;;13.93;3.50;;;;;;;7.00;82.20;100971.75;4840069;29;20064;-60
2021/03/14 11:10:16;;;;;;;19.60;3.63;;;;;;;6.98;81.92;100965.75;4847994;29;20628;-59
2021/03/14 11:12:44;;;;;;;14.13;2.97;;;;;;;6.97;81.78;100949.56;4837174;29;20057;-57
2021/03/14 11:15:28;;;;;;;21.10;4.68;;;;;;;7.00;82.42;100943.41;4837689;29;20064;-53
2021/03/14 11:17:56;;;;;;;15.43;2.80;;;;;;;7.03;82.30;100951.03;4842614;29;20045;-59
2021/03/14 11:20:24;;;;;;;19.58;2.85;;;;;;;7.05;82.31;100944.09;4846659;29;20136;-58
2021/03/14 11:22:52;;;;;;;14.45;2.45;;;;;;;7.10;82.39;100932.13;4850633;29;20046;-56
2021/03/14 11:25:19;;;;;;;14.77;2.95;;;;;;;7.17;82.42;100918.72;4839437;29;20050;-53
2021/03/14 11:27:47;;;;;;;17.85;3.40;;;;;;;7.26;82.49;100941.59;4838654;29;20085;-57
2021/03/14 11:30:17;;;;;;;20.55;3.40;;;;;;;7.38;82.82;100914.28;4855862;29;20510;-58
2021/03/14 11:32:44;;;;;;;16.58;3.60;;;;;;;7.54;82.36;100907.19;4847489;29;20496;-53
2021/03/14 11:35:11;;;;;;;18.80;2.55;;;;;;;7.68;82.37;100921.63;4846688;29;20844;-56
2021/03/14 11:37:39;;;;;;;19.00;3.17;;;;;;;7.78;82.27;100928.78;4824247;29;20058;-58
2021/03/14 11:40:08;;;;;;;15.80;2.85;;;;;;;7.81;82.38;100922.63;4847226;29;20054;-55
2021/03/14 11:42:37;;;;;;;14.38;3.58;;;;;;;7.92;82.24;100927.50;4840423;29;20101;-56
2021/03/14 11:45:05;;;;;;;16.83;2.50;;;;;;;7.95;82.21;100935.13;4836567;29;20660;-56